createdAt,value
2019-05-20T00:00:57.324Z,12.70
2019-05-20T00:01:57.544Z,12.50
2019-05-20T00:02:57.771Z,12.70
2019-05-20T00:03:58.003Z,12.60
2019-05-20T00:04:58.231Z,12.40
2019-05-20T00:05:58.479Z,12.20
2019-05-20T00:06:58.689Z,13.10
2019-05-20T00:07:58.916Z,12.60
2019-05-20T00:08:59.143Z,12.90
2019-05-20T00:09:59.371Z,12.80
2019-05-20T00:10:59.601Z,13.60
2019-05-20T00:11:59.828Z,12.40
2019-05-20T00:13:00.057Z,13.10
2019-05-20T00:14:00.283Z,11.80
2019-05-20T00:15:00.508Z,12.70
2019-05-20T00:16:00.739Z,13.20
2019-05-20T00:17:00.960Z,12.40
2019-05-20T00:18:01.184Z,13.20
2019-05-20T00:19:01.408Z,13.20
2019-05-20T00:20:01.672Z,13.00
2019-05-20T00:21:01.860Z,12.00
2019-05-20T00:22:02.086Z,12.70
2019-05-20T00:23:02.313Z,13.90
2019-05-20T00:24:02.550Z,13.40
2019-05-20T00:25:02.763Z,12.90
2019-05-20T00:26:02.996Z,12.70
2019-05-20T00:27:03.214Z,12.10
2019-05-20T00:28:03.440Z,13.50
2019-05-20T00:29:03.665Z,14.10
2019-05-20T00:30:03.896Z,13.20
2019-05-20T00:31:04.123Z,13.70
2019-05-20T00:32:04.347Z,13.40
2019-05-20T00:33:04.575Z,13.60
2019-05-20T00:34:04.801Z,14.10
2019-05-20T00:35:05.033Z,13.60
2019-05-20T00:36:05.251Z,13.60
2019-05-20T00:37:05.480Z,14.20
2019-05-20T00:38:05.729Z,14.40
2019-05-20T00:39:05.949Z,14.40
2019-05-20T00:40:06.175Z,13.90
2019-05-20T00:41:06.389Z,13.30
2019-05-20T00:42:06.616Z,12.80
2019-05-20T00:43:06.841Z,12.40
2019-05-20T00:44:07.085Z,12.80
2019-05-20T00:45:07.302Z,12.10
2019-05-20T00:46:07.532Z,12.00
2019-05-20T00:47:07.763Z,12.50
2019-05-20T00:48:07.980Z,12.30
2019-05-20T00:49:08.213Z,12.50
2019-05-20T00:50:08.434Z,12.50
2019-05-20T00:51:08.663Z,12.10
2019-05-20T00:52:08.893Z,11.90
2019-05-20T00:53:09.120Z,12.50
2019-05-20T00:54:09.342Z,12.20
2019-05-20T00:55:09.573Z,12.50
2019-05-20T00:56:09.799Z,12.50
2019-05-20T00:57:10.024Z,13.40
2019-05-20T00:58:10.247Z,14.60
2019-05-20T00:59:10.482Z,13.80
2019-05-20T01:00:10.717Z,12.00
2019-05-20T01:01:11.286Z,11.90
2019-05-20T01:02:11.150Z,11.80
2019-05-20T01:03:11.375Z,12.10
2019-05-20T01:04:11.600Z,11.90
2019-05-20T01:05:11.825Z,11.40
2019-05-20T01:06:12.046Z,11.90
2019-05-20T01:07:12.281Z,11.70
2019-05-20T01:08:12.502Z,11.70
2019-05-20T01:09:12.729Z,11.90
2019-05-20T01:10:12.957Z,10.90
2019-05-20T01:11:13.183Z,11.40
2019-05-20T01:12:13.405Z,11.60
2019-05-20T01:13:13.630Z,11.80
2019-05-20T01:14:13.860Z,12.00
2019-05-20T01:15:14.086Z,11.50
2019-05-20T01:16:14.313Z,11.80
2019-05-20T01:17:14.540Z,12.10
2019-05-20T01:18:14.771Z,10.80
2019-05-20T01:19:14.998Z,11.00
2019-05-20T01:20:15.226Z,11.10
2019-05-20T01:21:15.456Z,10.70
2019-05-20T01:22:15.679Z,11.00
2019-05-20T01:23:15.909Z,10.70
2019-05-20T01:24:16.135Z,11.10
2019-05-20T01:25:16.395Z,11.50
2019-05-20T01:26:16.593Z,11.80
2019-05-20T01:27:16.824Z,12.00
2019-05-20T01:28:17.044Z,12.60
2019-05-20T01:29:17.271Z,12.00
2019-05-20T01:30:17.502Z,12.00
2019-05-20T01:31:17.731Z,12.30
2019-05-20T01:32:17.953Z,12.80
2019-05-20T01:33:18.180Z,12.70
2019-05-20T01:34:18.407Z,12.20
2019-05-20T01:35:18.628Z,12.20
2019-05-20T01:36:18.857Z,11.60
2019-05-20T01:37:19.084Z,12.40
2019-05-20T01:38:19.311Z,12.10
2019-05-20T01:39:19.539Z,12.00
2019-05-20T01:40:19.769Z,11.60
2019-05-20T01:41:19.995Z,12.30
2019-05-20T01:42:20.225Z,11.70
2019-05-20T01:43:20.446Z,11.60
2019-05-20T01:44:20.673Z,11.40
2019-05-20T01:45:20.899Z,11.60
2019-05-20T01:46:21.123Z,12.30
2019-05-20T01:47:21.355Z,12.90
2019-05-20T01:48:21.582Z,12.40
2019-05-20T01:49:21.808Z,12.70
2019-05-20T01:50:22.041Z,11.70
2019-05-20T01:51:22.287Z,11.90
2019-05-20T01:52:22.485Z,11.70
2019-05-20T01:53:22.713Z,12.80
2019-05-20T01:54:22.935Z,12.30
2019-05-20T01:55:23.161Z,13.20
2019-05-20T01:56:23.389Z,12.20
2019-05-20T01:57:23.614Z,12.70
2019-05-20T01:58:23.843Z,12.60
2019-05-20T01:59:24.069Z,12.80
2019-05-20T02:00:24.295Z,11.90
2019-05-20T02:01:24.521Z,12.90
2019-05-20T02:02:24.745Z,12.60
2019-05-20T02:03:31.691Z,12.40
2019-05-20T02:04:25.200Z,11.70
2019-05-20T02:05:25.426Z,12.30
2019-05-20T02:06:25.653Z,12.20
2019-05-20T02:07:25.879Z,12.60
2019-05-20T02:08:26.124Z,12.00
2019-05-20T02:09:26.337Z,11.40
2019-05-20T02:10:26.572Z,13.10
2019-05-20T02:11:26.792Z,12.20
2019-05-20T02:12:27.027Z,12.20
2019-05-20T02:13:27.250Z,12.60
2019-05-20T02:14:27.477Z,12.60
2019-05-20T02:15:27.703Z,13.30
2019-05-20T02:16:27.935Z,12.20
2019-05-20T02:17:28.155Z,12.20
2019-05-20T02:18:28.396Z,11.90
2019-05-20T02:19:28.610Z,11.80
2019-05-20T02:20:28.840Z,12.60
2019-05-20T02:21:29.070Z,12.00
2019-05-20T02:22:29.296Z,12.20
2019-05-20T02:23:29.526Z,11.90
2019-05-20T02:24:29.747Z,11.70
2019-05-20T02:25:29.974Z,12.70
2019-05-20T02:26:30.201Z,12.60
2019-05-20T02:27:30.431Z,12.70
2019-05-20T02:28:30.659Z,12.60
2019-05-20T02:29:30.898Z,12.40
2019-05-20T02:30:31.112Z,12.90
2019-05-20T02:31:31.350Z,13.10
2019-05-20T02:32:31.566Z,13.10
2019-05-20T02:33:50.114Z,12.80
2019-05-20T02:34:32.049Z,13.30
2019-05-20T02:35:32.245Z,13.20
2019-05-20T02:36:32.473Z,12.40
2019-05-20T02:37:32.703Z,12.50
2019-05-20T02:38:32.928Z,13.70
2019-05-20T02:39:33.158Z,13.50
2019-05-20T02:40:33.378Z,13.10
2019-05-20T02:41:33.605Z,13.80
2019-05-20T02:42:33.831Z,13.40
2019-05-20T02:43:34.058Z,12.90
2019-05-20T02:44:34.274Z,12.70
2019-05-20T02:45:34.502Z,12.50
2019-05-20T02:46:34.734Z,12.90
2019-05-20T02:47:34.951Z,12.20
2019-05-20T02:48:35.176Z,13.60
2019-05-20T02:49:35.405Z,13.10
2019-05-20T02:50:35.629Z,13.30
2019-05-20T02:51:35.886Z,14.00
2019-05-20T02:52:36.087Z,13.80
2019-05-20T02:53:36.310Z,13.70
2019-05-20T02:54:36.541Z,14.50
2019-05-20T02:55:36.767Z,12.80
2019-05-20T02:56:36.994Z,14.20
2019-05-20T02:57:37.214Z,13.70
2019-05-20T02:58:37.460Z,13.90
2019-05-20T02:59:37.667Z,13.00
2019-05-20T03:00:37.896Z,13.80
2019-05-20T03:01:38.125Z,13.10
2019-05-20T03:02:38.350Z,13.30
2019-05-20T03:03:38.577Z,13.80
2019-05-20T03:04:38.802Z,13.40
2019-05-20T03:05:39.026Z,13.30
2019-05-20T03:06:39.257Z,13.10
2019-05-20T03:07:39.493Z,13.60
2019-05-20T03:08:39.709Z,13.40
2019-05-20T03:09:39.933Z,13.70
2019-05-20T03:10:40.165Z,12.80
2019-05-20T03:11:40.383Z,13.60
2019-05-20T03:12:40.615Z,13.10
2019-05-20T03:13:40.837Z,13.10
2019-05-20T03:14:41.120Z,12.80
2019-05-20T03:15:41.287Z,12.80
2019-05-20T03:16:41.515Z,12.50
2019-05-20T03:17:41.742Z,12.90
2019-05-20T03:18:41.980Z,13.80
2019-05-20T03:19:42.197Z,12.80
2019-05-20T03:20:42.426Z,12.70
2019-05-20T03:21:42.672Z,13.50
2019-05-20T03:22:42.882Z,13.70
2019-05-20T03:23:43.104Z,12.90
2019-05-20T03:24:43.328Z,14.00
2019-05-20T03:25:43.559Z,13.80
2019-05-20T03:26:43.790Z,14.10
2019-05-20T03:27:44.009Z,15.70
2019-05-20T03:28:44.236Z,15.00
2019-05-20T03:29:44.460Z,15.00
2019-05-20T03:30:44.695Z,14.80
2019-05-20T03:31:44.918Z,14.60
2019-05-20T03:32:45.146Z,14.40
2019-05-20T03:33:45.372Z,14.60
2019-05-20T03:34:54.020Z,14.30
2019-05-20T03:35:45.834Z,14.20
2019-05-20T03:36:46.057Z,13.80
2019-05-20T03:37:46.282Z,14.90
2019-05-20T03:38:46.504Z,14.20
2019-05-20T03:39:46.733Z,14.90
2019-05-20T03:40:46.958Z,15.00
2019-05-20T03:41:47.178Z,14.80
2019-05-20T03:42:47.413Z,15.10
2019-05-20T03:43:47.632Z,15.10
2019-05-20T03:44:47.861Z,13.90
2019-05-20T03:45:48.086Z,14.40
2019-05-20T03:46:48.316Z,14.60
2019-05-20T03:47:48.543Z,13.70
2019-05-20T03:48:48.770Z,14.10
2019-05-20T03:49:48.998Z,15.20
2019-05-20T03:50:49.224Z,14.20
2019-05-20T03:51:52.460Z,14.00
2019-05-20T03:52:49.681Z,13.40
2019-05-20T03:53:49.964Z,13.30
2019-05-20T03:54:50.127Z,14.90
2019-05-20T03:55:50.354Z,14.10
2019-05-20T03:56:50.581Z,14.00
2019-05-20T03:57:50.809Z,13.10
2019-05-20T03:58:51.037Z,13.20
2019-05-20T03:59:51.261Z,13.70
2019-05-20T04:00:51.491Z,14.20
2019-05-20T04:01:51.721Z,14.00
2019-05-20T04:02:51.952Z,14.00
2019-05-20T04:03:52.182Z,13.70
2019-05-20T04:05:02.461Z,13.90
2019-05-20T04:05:52.632Z,14.10
2019-05-20T04:06:52.863Z,14.10
2019-05-20T04:07:53.094Z,13.80
2019-05-20T04:08:53.313Z,13.20
2019-05-20T04:09:53.544Z,13.30
2019-05-20T04:10:53.780Z,13.40
2019-05-20T04:11:53.992Z,13.90
2019-05-20T04:12:54.226Z,12.90
2019-05-20T04:13:54.446Z,13.30
2019-05-20T04:14:54.676Z,12.40
2019-05-20T04:15:54.904Z,13.50
2019-05-20T04:16:55.134Z,13.40
2019-05-20T04:17:55.369Z,14.00
2019-05-20T04:18:55.623Z,13.80
2019-05-20T04:19:55.799Z,13.90
2019-05-20T04:20:56.033Z,13.30
2019-05-20T04:21:56.247Z,12.70
2019-05-20T04:22:56.477Z,14.20
2019-05-20T04:24:00.820Z,15.00
2019-05-20T04:24:56.935Z,13.70
2019-05-20T04:25:57.154Z,14.00
2019-05-20T04:26:57.385Z,12.50
2019-05-20T04:27:57.620Z,13.00
2019-05-20T04:28:57.844Z,17.90
2019-05-20T04:29:58.074Z,14.60
2019-05-20T04:30:58.308Z,14.80
2019-05-20T04:31:58.523Z,14.60
2019-05-20T04:32:58.753Z,13.80
2019-05-20T04:33:58.981Z,13.30
2019-05-20T04:34:59.209Z,12.90
2019-05-20T04:35:59.441Z,13.00
2019-05-20T04:36:59.665Z,13.20
2019-05-20T04:37:59.892Z,13.20
2019-05-20T04:39:00.124Z,12.80
2019-05-20T04:40:00.342Z,12.70
2019-05-20T04:41:00.566Z,12.60
2019-05-20T04:42:00.807Z,12.30
2019-05-20T04:43:01.029Z,12.60
2019-05-20T04:44:01.256Z,13.10
2019-05-20T04:45:01.607Z,12.90
2019-05-20T04:46:01.714Z,11.80
2019-05-20T04:47:01.938Z,11.70
2019-05-20T04:48:02.167Z,13.40
2019-05-20T04:49:02.393Z,13.40
2019-05-20T04:50:02.634Z,12.60
2019-05-20T04:51:02.851Z,12.20
2019-05-20T04:52:03.080Z,13.20
2019-05-20T04:53:03.307Z,12.50
2019-05-20T04:54:03.538Z,12.80
2019-05-20T04:55:03.755Z,11.90
2019-05-20T04:56:03.989Z,12.10
2019-05-20T04:57:04.213Z,12.20
2019-05-20T04:58:04.450Z,12.30
2019-05-20T04:59:04.689Z,12.60
2019-05-20T05:00:04.921Z,11.60
2019-05-20T05:01:05.146Z,11.70
2019-05-20T05:02:05.371Z,10.90
2019-05-20T05:03:05.599Z,12.50
2019-05-20T05:04:05.830Z,12.30
2019-05-20T05:05:06.057Z,12.20
2019-05-20T05:06:06.283Z,11.70
2019-05-20T05:07:06.518Z,10.70
2019-05-20T05:08:06.742Z,10.00
2019-05-20T05:09:06.971Z,11.10
2019-05-20T05:10:07.196Z,11.10
2019-05-20T05:11:07.423Z,11.20
2019-05-20T05:12:07.653Z,11.40
2019-05-20T05:13:07.889Z,11.20
2019-05-20T05:14:08.114Z,12.50
2019-05-20T05:15:08.425Z,11.20
2019-05-20T05:16:08.569Z,11.50
2019-05-20T05:17:08.801Z,10.60
2019-05-20T05:18:09.036Z,10.00
2019-05-20T05:19:09.267Z,10.40
2019-05-20T05:20:17.511Z,10.50
2019-05-20T05:21:09.728Z,9.90
2019-05-20T05:22:09.956Z,10.70
2019-05-20T05:23:10.189Z,10.30
2019-05-20T05:24:10.420Z,10.60
2019-05-20T05:25:10.647Z,11.30
2019-05-20T05:26:10.875Z,11.60
2019-05-20T05:27:11.102Z,12.50
2019-05-20T05:28:11.332Z,12.30
2019-05-20T05:29:11.560Z,12.30
2019-05-20T05:30:11.792Z,11.60
2019-05-20T05:31:12.019Z,11.90
2019-05-20T05:32:12.269Z,11.40
2019-05-20T05:33:12.478Z,11.90
2019-05-20T05:34:12.737Z,11.90
2019-05-20T05:35:12.945Z,11.50
2019-05-20T05:36:13.173Z,11.80
2019-05-20T05:37:13.407Z,12.00
2019-05-20T05:38:13.639Z,12.30
2019-05-20T05:39:13.869Z,12.70
2019-05-20T05:40:14.098Z,13.10
2019-05-20T05:41:14.332Z,12.60
2019-05-20T05:42:14.563Z,13.20
2019-05-20T05:43:14.787Z,13.50
2019-05-20T05:44:15.016Z,13.30
2019-05-20T05:45:15.245Z,12.30
2019-05-20T05:46:15.475Z,13.70
2019-05-20T05:47:15.704Z,13.80
2019-05-20T05:48:15.938Z,14.50
2019-05-20T05:49:16.163Z,13.40
2019-05-20T05:50:16.392Z,13.50
2019-05-20T05:51:16.619Z,14.50
2019-05-20T05:52:16.851Z,14.20
2019-05-20T05:53:17.077Z,13.70
2019-05-20T05:54:17.309Z,13.90
2019-05-20T05:55:17.540Z,14.20
2019-05-20T05:56:17.765Z,13.20
2019-05-20T05:57:17.998Z,14.00
2019-05-20T05:58:18.228Z,13.40
2019-05-20T05:59:18.457Z,13.40
2019-05-20T06:00:18.686Z,13.80
2019-05-20T06:01:18.921Z,14.40
2019-05-20T06:02:19.146Z,13.50
2019-05-20T06:03:19.380Z,14.20
2019-05-20T06:04:19.608Z,13.50
2019-05-20T06:05:19.841Z,13.40
2019-05-20T06:06:20.068Z,13.10
2019-05-20T06:07:20.304Z,13.20
2019-05-20T06:08:20.526Z,13.20
2019-05-20T06:09:20.762Z,12.60
2019-05-20T06:10:20.991Z,13.00
2019-05-20T06:11:21.233Z,13.10
2019-05-20T06:12:21.441Z,13.10
2019-05-20T06:13:21.669Z,13.40
2019-05-20T06:14:21.907Z,13.40
2019-05-20T06:15:22.130Z,13.60
2019-05-20T06:16:36.038Z,13.70
2019-05-20T06:17:22.594Z,12.70
2019-05-20T06:18:22.821Z,12.60
2019-05-20T06:19:23.057Z,12.60
2019-05-20T06:20:23.283Z,12.10
2019-05-20T06:21:23.513Z,13.00
2019-05-20T06:22:23.743Z,13.00
2019-05-20T06:23:23.973Z,13.20
2019-05-20T06:24:24.251Z,12.40
2019-05-20T06:25:24.442Z,12.20
2019-05-20T06:26:24.668Z,14.00
2019-05-20T06:27:24.891Z,13.00
2019-05-20T06:28:25.123Z,12.60
2019-05-20T06:29:25.359Z,12.30
2019-05-20T06:30:25.591Z,12.20
2019-05-20T06:31:25.830Z,12.00
2019-05-20T06:32:26.062Z,11.50
2019-05-20T06:33:26.281Z,11.90
2019-05-20T06:34:26.517Z,11.70
2019-05-20T06:35:26.749Z,11.30
2019-05-20T06:36:27.416Z,11.90
2019-05-20T06:37:27.212Z,12.40
2019-05-20T06:38:27.448Z,12.00
2019-05-20T06:39:27.682Z,12.00
2019-05-20T06:40:27.911Z,12.10
2019-05-20T06:41:28.140Z,12.00
2019-05-20T06:42:28.373Z,12.20
2019-05-20T06:43:28.608Z,12.10
2019-05-20T06:44:28.838Z,12.80
2019-05-20T06:45:29.072Z,11.90
2019-05-20T06:46:29.311Z,12.30
2019-05-20T06:47:29.540Z,13.30
2019-05-20T06:48:29.771Z,12.20
2019-05-20T06:49:30.006Z,13.20
2019-05-20T06:50:30.249Z,12.70
2019-05-20T06:51:30.474Z,12.90
2019-05-20T06:52:36.005Z,14.40
2019-05-20T06:53:30.940Z,14.60
2019-05-20T06:54:31.173Z,18.40
2019-05-20T06:55:31.410Z,17.40
2019-05-20T06:56:31.640Z,14.20
2019-05-20T06:57:31.877Z,14.70
2019-05-20T06:58:32.103Z,18.60
2019-05-20T06:59:32.333Z,14.80
2019-05-20T07:00:32.569Z,11.60
2019-05-20T07:01:32.804Z,11.40
2019-05-20T07:02:33.044Z,18.90
2019-05-20T07:03:33.273Z,11.10
2019-05-20T07:04:33.502Z,16.20
2019-05-20T07:05:33.742Z,12.90
2019-05-20T07:06:45.404Z,11.90
2019-05-20T07:07:34.204Z,11.40
2019-05-20T07:08:34.452Z,14.40
2019-05-20T07:09:34.670Z,12.50
2019-05-20T07:10:34.903Z,11.10
2019-05-20T07:11:35.138Z,11.30
2019-05-20T07:12:41.318Z,12.50
2019-05-20T07:13:35.593Z,11.60
2019-05-20T07:14:35.829Z,11.40
2019-05-20T07:15:36.060Z,11.40
2019-05-20T07:16:36.307Z,10.80
2019-05-20T07:17:36.534Z,11.40
2019-05-20T07:18:36.759Z,11.60
2019-05-20T07:19:36.990Z,11.40
2019-05-20T07:20:37.218Z,11.50
2019-05-20T07:21:37.453Z,11.50
2019-05-20T07:22:54.562Z,11.60
2019-05-20T07:23:37.925Z,11.70
2019-05-20T07:24:38.158Z,12.40
2019-05-20T07:25:38.390Z,12.00
2019-05-20T07:26:38.623Z,12.00
2019-05-20T07:27:38.855Z,11.90
2019-05-20T07:28:39.108Z,11.80
2019-05-20T07:29:39.327Z,12.10
2019-05-20T07:30:39.584Z,11.90
2019-05-20T07:31:39.793Z,12.20
2019-05-20T07:32:40.016Z,12.50
2019-05-20T07:33:40.252Z,11.90
2019-05-20T07:34:40.501Z,11.80
2019-05-20T07:35:40.726Z,11.90
2019-05-20T07:36:40.956Z,12.00
2019-05-20T07:37:41.191Z,11.50
2019-05-20T07:38:41.426Z,11.50
2019-05-20T07:39:41.662Z,11.90
2019-05-20T07:40:41.896Z,12.10
2019-05-20T07:41:42.129Z,12.50
2019-05-20T07:42:42.448Z,12.30
2019-05-20T07:43:42.601Z,11.30
2019-05-20T07:44:42.828Z,11.60
2019-05-20T07:45:43.066Z,11.30
2019-05-20T07:46:43.299Z,12.10
2019-05-20T07:47:43.537Z,11.20
2019-05-20T07:48:43.771Z,11.20
2019-05-20T07:49:43.997Z,11.90
2019-05-20T07:50:44.266Z,11.80
2019-05-20T07:51:44.459Z,11.40
2019-05-20T07:52:44.692Z,12.50
2019-05-20T07:53:44.931Z,11.70
2019-05-20T07:54:45.154Z,12.40
2019-05-20T07:55:45.403Z,11.90
2019-05-20T07:56:45.614Z,11.30
2019-05-20T07:57:45.857Z,12.10
2019-05-20T07:58:46.088Z,12.50
2019-05-20T07:59:46.333Z,12.20
2019-05-20T08:00:46.554Z,11.90
2019-05-20T08:01:46.788Z,11.00
2019-05-20T08:02:47.023Z,12.00
2019-05-20T08:03:47.255Z,12.10
2019-05-20T08:04:47.536Z,12.20
2019-05-20T08:05:47.719Z,12.10
2019-05-20T08:06:47.975Z,12.00
2019-05-20T08:07:52.532Z,11.90
2019-05-20T08:08:48.416Z,11.40
2019-05-20T08:09:48.658Z,12.00
2019-05-20T08:10:48.883Z,11.80
2019-05-20T08:11:49.120Z,12.10
2019-05-20T08:12:49.357Z,12.10
2019-05-20T08:13:49.587Z,12.10
2019-05-20T08:14:49.816Z,11.50
2019-05-20T08:15:50.108Z,11.80
2019-05-20T08:16:50.431Z,11.50
2019-05-20T08:17:50.517Z,11.60
2019-05-20T08:18:50.763Z,11.40
2019-05-20T08:19:50.978Z,11.70
2019-05-20T08:20:51.215Z,11.50
2019-05-20T08:21:51.451Z,10.80
2019-05-20T08:22:51.680Z,11.30
2019-05-20T08:23:51.926Z,11.40
2019-05-20T08:24:52.148Z,11.40
2019-05-20T08:25:52.373Z,11.80
2019-05-20T08:26:52.607Z,11.90
2019-05-20T08:27:52.842Z,11.60
2019-05-20T08:28:53.074Z,11.70
2019-05-20T08:29:53.307Z,11.40
2019-05-20T08:30:53.554Z,11.60
2019-05-20T08:31:53.778Z,11.40
2019-05-20T08:32:54.012Z,11.40
2019-05-20T08:33:54.270Z,11.90
2019-05-20T08:34:54.491Z,11.50
2019-05-20T08:35:54.722Z,11.70
2019-05-20T08:36:54.953Z,11.50
2019-05-20T08:37:55.190Z,11.30
2019-05-20T08:38:55.419Z,11.30
2019-05-20T08:39:55.652Z,11.60
2019-05-20T08:40:55.887Z,11.40
2019-05-20T08:41:56.126Z,11.30
2019-05-20T08:42:56.354Z,12.20
2019-05-20T08:43:56.580Z,12.10
2019-05-20T08:44:56.819Z,11.60
2019-05-20T08:45:57.065Z,11.60
2019-05-20T08:46:57.278Z,11.50
2019-05-20T08:47:57.515Z,11.50
2019-05-20T08:48:57.746Z,10.70
2019-05-20T08:49:58.045Z,11.50
2019-05-20T08:50:58.214Z,11.60
2019-05-20T08:51:58.464Z,11.90
2019-05-20T08:52:58.677Z,11.30
2019-05-20T08:53:58.905Z,11.20
2019-05-20T08:54:59.144Z,11.60
2019-05-20T08:55:59.380Z,11.50
2019-05-20T08:56:59.610Z,11.20
2019-05-20T08:57:59.860Z,10.40
2019-05-20T08:59:00.074Z,10.30
2019-05-20T09:00:00.316Z,10.40
2019-05-20T09:01:00.540Z,10.20
2019-05-20T09:02:00.775Z,10.40
2019-05-20T09:03:01.006Z,10.20
2019-05-20T09:04:01.242Z,10.40
2019-05-20T09:05:01.475Z,10.70
2019-05-20T09:06:01.715Z,11.00
2019-05-20T09:07:01.948Z,10.80
2019-05-20T09:08:03.931Z,11.60
2019-05-20T09:09:02.422Z,11.20
2019-05-20T09:10:02.655Z,11.70
2019-05-20T09:11:02.877Z,10.80
2019-05-20T09:12:03.140Z,10.50
2019-05-20T09:13:03.349Z,11.40
2019-05-20T09:14:03.612Z,10.40
2019-05-20T09:15:03.812Z,11.20
2019-05-20T09:16:04.049Z,12.40
2019-05-20T09:17:04.277Z,13.90
2019-05-20T09:18:04.516Z,12.30
2019-05-20T09:19:04.747Z,15.00
2019-05-20T09:20:04.977Z,15.60
2019-05-20T09:21:05.244Z,15.30
2019-05-20T09:22:05.453Z,11.30
2019-05-20T09:23:05.674Z,15.60
2019-05-20T09:24:05.916Z,11.30
2019-05-20T09:25:06.173Z,12.90
2019-05-20T09:26:06.373Z,10.60
2019-05-20T09:27:06.612Z,10.00
2019-05-20T09:28:06.840Z,10.90
2019-05-20T09:29:11.019Z,10.20
2019-05-20T09:30:07.351Z,10.50
2019-05-20T09:31:07.541Z,11.20
2019-05-20T09:32:07.781Z,10.00
2019-05-20T09:33:07.992Z,10.30
2019-05-20T09:34:08.243Z,10.00
2019-05-20T09:35:08.470Z,10.50
2019-05-20T09:36:08.693Z,9.30
2019-05-20T09:37:08.927Z,9.10
2019-05-20T09:38:19.543Z,10.70
2019-05-20T09:39:09.416Z,10.70
2019-05-20T09:40:09.628Z,10.80
2019-05-20T09:41:09.862Z,10.50
2019-05-20T09:42:10.142Z,10.40
2019-05-20T09:43:10.323Z,10.00
2019-05-20T09:44:10.578Z,9.40
2019-05-20T09:45:10.816Z,9.40
2019-05-20T09:46:11.026Z,9.10
2019-05-20T09:47:11.258Z,9.80
2019-05-20T09:48:11.532Z,10.30
2019-05-20T09:49:11.757Z,10.40
2019-05-20T09:50:11.994Z,9.90
2019-05-20T09:51:12.226Z,9.80
2019-05-20T09:52:12.470Z,10.20
2019-05-20T09:53:12.706Z,9.50
2019-05-20T09:54:12.936Z,9.20
2019-05-20T09:55:13.166Z,9.60
2019-05-20T09:56:13.403Z,9.30
2019-05-20T09:57:13.634Z,8.50
2019-05-20T09:58:13.866Z,9.10
2019-05-20T09:59:16.320Z,9.80
2019-05-20T10:00:14.332Z,9.70
2019-05-20T10:01:14.565Z,10.50
2019-05-20T10:02:14.806Z,9.90
2019-05-20T10:03:15.036Z,11.50
2019-05-20T10:04:15.270Z,10.30
2019-05-20T10:05:15.505Z,9.60
2019-05-20T10:06:15.738Z,10.50
2019-05-20T10:07:15.994Z,8.90
2019-05-20T10:08:16.210Z,10.60
2019-05-20T10:09:16.441Z,9.90
2019-05-20T10:10:16.677Z,10.70
2019-05-20T10:11:16.916Z,9.80
2019-05-20T10:12:17.155Z,9.20
2019-05-20T10:13:17.377Z,9.00
2019-05-20T10:14:17.614Z,9.70
2019-05-20T10:15:17.853Z,9.60
2019-05-20T10:16:18.090Z,9.90
2019-05-20T10:17:18.321Z,9.60
2019-05-20T10:18:35.620Z,9.70
2019-05-20T10:19:18.791Z,10.20
2019-05-20T10:20:19.029Z,9.60
2019-05-20T10:21:19.257Z,9.60
2019-05-20T10:22:19.492Z,9.20
2019-05-20T10:23:19.727Z,10.80
2019-05-20T10:24:19.963Z,9.90
2019-05-20T10:25:20.201Z,9.60
2019-05-20T10:26:20.428Z,9.90
2019-05-20T10:27:20.660Z,9.60
2019-05-20T10:28:20.942Z,9.60
2019-05-20T10:29:21.161Z,10.20
2019-05-20T10:30:21.371Z,10.30
2019-05-20T10:31:21.702Z,10.40
2019-05-20T10:32:21.833Z,9.80
2019-05-20T10:33:22.066Z,10.30
2019-05-20T10:34:22.295Z,9.50
2019-05-20T10:35:22.536Z,10.00
2019-05-20T10:36:22.770Z,9.80
2019-05-20T10:37:23.009Z,10.70
2019-05-20T10:38:23.243Z,10.50
2019-05-20T10:39:23.507Z,10.50
2019-05-20T10:40:23.730Z,10.10
2019-05-20T10:41:24.006Z,10.10
2019-05-20T10:42:24.205Z,9.50
2019-05-20T10:43:24.426Z,9.90
2019-05-20T10:44:24.658Z,9.40
2019-05-20T10:45:24.889Z,9.90
2019-05-20T10:46:25.130Z,9.80
2019-05-20T10:47:25.356Z,9.40
2019-05-20T10:48:25.591Z,9.70
2019-05-20T10:49:25.827Z,9.90
2019-05-20T10:50:26.061Z,9.10
2019-05-20T10:51:26.302Z,9.20
2019-05-20T10:52:26.525Z,9.80
2019-05-20T10:53:28.442Z,10.00
2019-05-20T10:54:26.992Z,9.60
2019-05-20T10:55:27.223Z,10.30
2019-05-20T10:56:27.458Z,10.00
2019-05-20T10:57:27.689Z,10.00
2019-05-20T10:58:27.924Z,11.10
2019-05-20T10:59:28.157Z,10.70
2019-05-20T11:00:28.392Z,11.00
2019-05-20T11:01:28.629Z,11.60
2019-05-20T11:02:31.353Z,11.10
2019-05-20T11:03:29.116Z,11.60
2019-05-20T11:04:29.358Z,10.80
2019-05-20T11:05:29.581Z,10.20
2019-05-20T11:06:29.815Z,9.50
2019-05-20T11:07:30.048Z,10.60
2019-05-20T11:08:30.291Z,11.60
2019-05-20T11:09:30.517Z,11.10
2019-05-20T11:10:30.756Z,12.00
2019-05-20T11:11:30.987Z,11.70
2019-05-20T11:12:31.228Z,11.10
2019-05-20T11:13:31.454Z,11.20
2019-05-20T11:14:31.685Z,11.50
2019-05-20T11:15:31.965Z,11.10
2019-05-20T11:16:32.155Z,12.20
2019-05-20T11:17:32.390Z,11.90
2019-05-20T11:18:32.624Z,11.90
2019-05-20T11:19:32.860Z,11.40
2019-05-20T11:20:33.089Z,11.60
2019-05-20T11:21:33.341Z,12.10
2019-05-20T11:22:33.551Z,11.00
2019-05-20T11:23:33.787Z,11.00
2019-05-20T11:24:34.018Z,13.10
2019-05-20T11:25:34.252Z,11.20
2019-05-20T11:26:34.488Z,11.90
2019-05-20T11:27:34.724Z,12.00
2019-05-20T11:28:34.952Z,11.70
2019-05-20T11:29:35.183Z,12.00
2019-05-20T11:30:35.421Z,11.20
2019-05-20T11:31:35.663Z,11.90
2019-05-20T11:32:35.886Z,12.20
2019-05-20T11:33:36.118Z,11.30
2019-05-20T11:34:36.751Z,11.80
2019-05-20T11:35:36.587Z,12.70
2019-05-20T11:36:36.823Z,13.20
2019-05-20T11:37:37.060Z,12.60
2019-05-20T11:38:37.291Z,11.20
2019-05-20T11:39:37.524Z,11.90
2019-05-20T11:40:37.754Z,12.30
2019-05-20T11:41:52.936Z,12.20
2019-05-20T11:42:38.224Z,12.90
2019-05-20T11:43:38.452Z,13.30
2019-05-20T11:44:38.716Z,11.40
2019-05-20T11:45:38.997Z,11.90
2019-05-20T11:46:39.160Z,12.40
2019-05-20T11:47:39.397Z,12.20
2019-05-20T11:48:39.629Z,13.00
2019-05-20T11:49:39.869Z,12.60
2019-05-20T11:50:40.102Z,12.40
2019-05-20T11:51:40.332Z,13.90
2019-05-20T11:52:40.575Z,14.50
2019-05-20T11:53:40.805Z,12.60
2019-05-20T11:54:41.040Z,14.00
2019-05-20T11:55:41.269Z,13.50
2019-05-20T11:56:41.515Z,14.30
2019-05-20T11:57:41.734Z,13.70
2019-05-20T11:58:41.977Z,14.00
2019-05-20T11:59:42.203Z,13.90
2019-05-20T12:00:42.439Z,13.50
2019-05-20T12:01:42.719Z,13.80
2019-05-20T12:02:42.906Z,14.10
2019-05-20T12:03:43.146Z,15.20
2019-05-20T12:04:43.376Z,14.90
2019-05-20T12:05:43.633Z,15.00
2019-05-20T12:06:43.836Z,16.90
2019-05-20T12:07:44.080Z,17.60
2019-05-20T12:08:44.303Z,17.40
2019-05-20T12:09:49.641Z,18.00
2019-05-20T12:10:44.769Z,18.10
2019-05-20T12:11:45.008Z,19.00
2019-05-20T12:12:46.182Z,18.90
2019-05-20T12:13:45.468Z,19.60
2019-05-20T12:14:45.696Z,18.70
2019-05-20T12:15:45.926Z,19.40
2019-05-20T12:16:46.156Z,19.90
2019-05-20T12:17:46.392Z,21.30
2019-05-20T12:18:46.616Z,20.10
2019-05-20T12:19:46.851Z,20.30
2019-05-20T12:20:47.082Z,20.20
2019-05-20T12:21:47.320Z,20.20
2019-05-20T12:22:47.558Z,19.70
2019-05-20T12:23:47.781Z,20.20
2019-05-20T12:24:48.014Z,19.70
2019-05-20T12:25:48.244Z,18.50
2019-05-20T12:26:48.516Z,19.40
2019-05-20T12:27:48.707Z,20.30
2019-05-20T12:28:48.938Z,20.30
2019-05-20T12:29:49.169Z,19.70
2019-05-20T12:30:49.404Z,19.30
2019-05-20T12:31:49.637Z,19.40
2019-05-20T12:32:49.878Z,18.50
2019-05-20T12:33:50.134Z,19.50
2019-05-20T12:34:50.363Z,19.20
2019-05-20T12:35:50.602Z,18.70
2019-05-20T12:36:50.845Z,18.90
2019-05-20T12:37:51.063Z,18.60
2019-05-20T12:38:51.304Z,18.80
2019-05-20T12:40:05.918Z,16.50
2019-05-20T12:40:51.765Z,19.00
2019-05-20T12:41:52.010Z,19.00
2019-05-20T12:42:52.231Z,19.00
2019-05-20T12:44:09.995Z,17.30
2019-05-20T12:44:52.697Z,18.10
2019-05-20T12:45:52.925Z,18.10
2019-05-20T12:46:53.164Z,17.80
2019-05-20T12:47:53.391Z,17.80
2019-05-20T12:48:53.692Z,17.40
2019-05-20T12:49:53.856Z,17.90
2019-05-20T12:50:54.087Z,18.40
2019-05-20T12:51:54.328Z,17.90
2019-05-20T12:52:54.554Z,17.70
2019-05-20T12:53:54.792Z,18.30
2019-05-20T12:55:06.893Z,17.50
2019-05-20T12:55:55.250Z,17.30
2019-05-20T12:56:55.484Z,16.90
2019-05-20T12:57:55.718Z,17.20